sensor_id;sensor_type;location;lat;lon;timestamp;P1;durP1;ratioP1;P2;durP2;ratioP2
5702;SDS011;2876;51.738;10.050;2022-11-20T00:00:41;18.23;;;9.93;;
5702;SDS011;2876;51.738;10.050;2022-11-20T00:06:43;18.50;;;8.77;;
5702;SDS011;2876;51.738;10.050;2022-11-20T00:12:45;19.53;;;10.37;;
5702;SDS011;2876;51.738;10.050;2022-11-20T00:18:47;17.30;;;9.60;;
5702;SDS011;2876;51.738;10.050;2022-11-20T00:25:02;15.70;;;10.10;;
5702;SDS011;2876;51.738;10.050;2022-11-20T00:31:09;14.73;;;9.07;;
5702;SDS011;2876;51.738;10.050;2022-11-20T00:37:31;13.30;;;9.03;;
5702;SDS011;2876;51.738;10.050;2022-11-20T00:43:41;21.83;;;9.37;;
5702;SDS011;2876;51.738;10.050;2022-11-20T00:49:44;12.70;;;9.13;;
5702;SDS011;2876;51.738;10.050;2022-11-20T00:55:56;12.83;;;7.87;;
5702;SDS011;2876;51.738;10.050;2022-11-20T01:02:06;14.57;;;9.20;;
5702;SDS011;2876;51.738;10.050;2022-11-20T01:08:08;15.60;;;9.10;;
5702;SDS011;2876;51.738;10.050;2022-11-20T01:14:15;16.37;;;9.57;;
5702;SDS011;2876;51.738;10.050;2022-11-20T01:20:19;12.23;;;8.10;;
5702;SDS011;2876;51.738;10.050;2022-11-20T01:26:29;16.80;;;10.27;;
5702;SDS011;2876;51.738;10.050;2022-11-20T01:32:34;13.80;;;9.20;;
5702;SDS011;2876;51.738;10.050;2022-11-20T01:38:36;18.23;;;11.00;;
5702;SDS011;2876;51.738;10.050;2022-11-20T01:44:49;18.27;;;11.37;;
5702;SDS011;2876;51.738;10.050;2022-11-20T01:50:57;13.77;;;9.73;;
5702;SDS011;2876;51.738;10.050;2022-11-20T01:57:00;13.63;;;8.87;;
5702;SDS011;2876;51.738;10.050;2022-11-20T02:03:08;13.03;;;9.30;;
5702;SDS011;2876;51.738;10.050;2022-11-20T02:09:15;13.77;;;8.60;;
5702;SDS011;2876;51.738;10.050;2022-11-20T02:15:17;13.90;;;9.30;;
5702;SDS011;2876;51.738;10.050;2022-11-20T02:21:21;18.00;;;10.77;;
5702;SDS011;2876;51.738;10.050;2022-11-20T02:27:29;17.20;;;10.93;;
5702;SDS011;2876;51.738;10.050;2022-11-20T02:33:31;15.20;;;9.17;;
5702;SDS011;2876;51.738;10.050;2022-11-20T02:39:43;17.33;;;9.73;;
5702;SDS011;2876;51.738;10.050;2022-11-20T02:45:48;14.30;;;9.70;;
5702;SDS011;2876;51.738;10.050;2022-11-20T02:51:53;16.37;;;10.30;;
5702;SDS011;2876;51.738;10.050;2022-11-20T02:57:55;13.63;;;9.83;;
5702;SDS011;2876;51.738;10.050;2022-11-20T03:03:57;20.37;;;10.67;;
5702;SDS011;2876;51.738;10.050;2022-11-20T03:09:59;17.17;;;10.33;;
5702;SDS011;2876;51.738;10.050;2022-11-20T03:16:05;15.10;;;10.13;;
5702;SDS011;2876;51.738;10.050;2022-11-20T03:22:15;17.93;;;10.17;;
5702;SDS011;2876;51.738;10.050;2022-11-20T03:28:17;15.03;;;10.13;;
5702;SDS011;2876;51.738;10.050;2022-11-20T03:34:19;15.33;;;10.63;;
5702;SDS011;2876;51.738;10.050;2022-11-20T03:40:21;16.67;;;10.40;;
5702;SDS011;2876;51.738;10.050;2022-11-20T03:46:23;17.03;;;9.73;;
5702;SDS011;2876;51.738;10.050;2022-11-20T03:52:26;18.00;;;10.93;;
5702;SDS011;2876;51.738;10.050;2022-11-20T03:58:42;16.60;;;10.33;;
5702;SDS011;2876;51.738;10.050;2022-11-20T04:04:45;19.33;;;9.73;;
5702;SDS011;2876;51.738;10.050;2022-11-20T04:10:56;16.20;;;9.77;;
5702;SDS011;2876;51.738;10.050;2022-11-20T04:16:58;17.00;;;9.60;;
5702;SDS011;2876;51.738;10.050;2022-11-20T04:23:00;16.50;;;10.27;;
5702;SDS011;2876;51.738;10.050;2022-11-20T04:29:02;18.97;;;11.20;;
5702;SDS011;2876;51.738;10.050;2022-11-20T04:35:14;27.30;;;11.27;;
5702;SDS011;2876;51.738;10.050;2022-11-20T04:41:17;19.30;;;10.77;;
5702;SDS011;2876;51.738;10.050;2022-11-20T04:47:21;20.17;;;12.37;;
5702;SDS011;2876;51.738;10.050;2022-11-20T04:53:30;16.77;;;11.67;;
5702;SDS011;2876;51.738;10.050;2022-11-20T04:59:32;20.00;;;11.90;;
5702;SDS011;2876;51.738;10.050;2022-11-20T05:05:34;19.13;;;12.43;;
5702;SDS011;2876;51.738;10.050;2022-11-20T05:11:36;21.27;;;12.37;;
5702;SDS011;2876;51.738;10.050;2022-11-20T05:17:38;24.50;;;12.57;;
5702;SDS011;2876;51.738;10.050;2022-11-20T05:23:40;22.27;;;11.97;;
5702;SDS011;2876;51.738;10.050;2022-11-20T05:29:43;21.03;;;11.23;;
5702;SDS011;2876;51.738;10.050;2022-11-20T05:35:45;19.87;;;11.77;;
5702;SDS011;2876;51.738;10.050;2022-11-20T05:41:50;19.13;;;11.40;;
5702;SDS011;2876;51.738;10.050;2022-11-20T05:48:12;17.97;;;11.57;;
5702;SDS011;2876;51.738;10.050;2022-11-20T05:54:14;16.27;;;10.30;;
5702;SDS011;2876;51.738;10.050;2022-11-20T06:00:28;17.50;;;11.03;;
5702;SDS011;2876;51.738;10.050;2022-11-20T06:06:33;19.00;;;11.90;;
5702;SDS011;2876;51.738;10.050;2022-11-20T06:12:41;20.63;;;11.47;;
5702;SDS011;2876;51.738;10.050;2022-11-20T06:18:42;17.13;;;10.87;;
5702;SDS011;2876;51.738;10.050;2022-11-20T06:24:45;16.67;;;11.10;;
5702;SDS011;2876;51.738;10.050;2022-11-20T06:30:47;20.20;;;11.30;;
5702;SDS011;2876;51.738;10.050;2022-11-20T06:36:49;17.60;;;10.77;;
5702;SDS011;2876;51.738;10.050;2022-11-20T06:42:53;17.90;;;10.73;;
5702;SDS011;2876;51.738;10.050;2022-11-20T06:48:55;15.47;;;10.53;;
5702;SDS011;2876;51.738;10.050;2022-11-20T06:55:11;17.40;;;11.37;;
5702;SDS011;2876;51.738;10.050;2022-11-20T07:01:14;22.97;;;12.40;;
5702;SDS011;2876;51.738;10.050;2022-11-20T07:07:16;19.70;;;10.60;;
5702;SDS011;2876;51.738;10.050;2022-11-20T07:13:18;17.33;;;10.87;;
5702;SDS011;2876;51.738;10.050;2022-11-20T07:19:20;24.27;;;13.10;;
5702;SDS011;2876;51.738;10.050;2022-11-20T07:25:23;22.50;;;12.63;;
5702;SDS011;2876;51.738;10.050;2022-11-20T07:31:26;23.53;;;12.00;;
5702;SDS011;2876;51.738;10.050;2022-11-20T07:37:28;23.67;;;13.40;;
5702;SDS011;2876;51.738;10.050;2022-11-20T07:43:30;20.93;;;13.03;;
5702;SDS011;2876;51.738;10.050;2022-11-20T07:49:38;19.53;;;12.20;;
5702;SDS011;2876;51.738;10.050;2022-11-20T07:55:40;22.60;;;12.53;;
5702;SDS011;2876;51.738;10.050;2022-11-20T08:01:42;32.23;;;12.70;;
5702;SDS011;2876;51.738;10.050;2022-11-20T08:07:44;25.53;;;13.67;;
5702;SDS011;2876;51.738;10.050;2022-11-20T08:13:46;21.30;;;13.77;;
5702;SDS011;2876;51.738;10.050;2022-11-20T08:20:07;23.67;;;14.30;;
5702;SDS011;2876;51.738;10.050;2022-11-20T08:26:10;23.57;;;14.17;;
5702;SDS011;2876;51.738;10.050;2022-11-20T08:32:12;26.83;;;14.40;;
5702;SDS011;2876;51.738;10.050;2022-11-20T08:38:14;20.00;;;13.07;;
5702;SDS011;2876;51.738;10.050;2022-11-20T08:44:16;19.50;;;12.37;;
5702;SDS011;2876;51.738;10.050;2022-11-20T08:50:22;20.60;;;12.63;;
5702;SDS011;2876;51.738;10.050;2022-11-20T08:56:24;16.67;;;11.43;;
5702;SDS011;2876;51.738;10.050;2022-11-20T09:02:26;20.27;;;12.20;;
5702;SDS011;2876;51.738;10.050;2022-11-20T09:08:38;22.17;;;12.07;;
5702;SDS011;2876;51.738;10.050;2022-11-20T09:14:41;22.50;;;11.83;;
5702;SDS011;2876;51.738;10.050;2022-11-20T09:20:46;21.03;;;11.97;;
5702;SDS011;2876;51.738;10.050;2022-11-20T09:26:48;20.60;;;12.83;;
5702;SDS011;2876;51.738;10.050;2022-11-20T09:33:00;16.67;;;11.17;;
5702;SDS011;2876;51.738;10.050;2022-11-20T09:39:04;17.67;;;10.57;;
5702;SDS011;2876;51.738;10.050;2022-11-20T09:58:56;18.73;;;11.43;;
5702;SDS011;2876;51.738;10.050;2022-11-20T10:05:21;18.93;;;10.83;;
5702;SDS011;2876;51.738;10.050;2022-11-20T10:11:38;15.70;;;10.43;;
5702;SDS011;2876;51.738;10.050;2022-11-20T10:24:51;18.90;;;11.80;;
5702;SDS011;2876;51.738;10.050;2022-11-20T10:31:13;17.60;;;10.17;;
5702;SDS011;2876;51.738;10.050;2022-11-20T10:37:34;17.00;;;11.70;;
5702;SDS011;2876;51.738;10.050;2022-11-20T10:50:09;15.60;;;10.43;;
5702;SDS011;2876;51.738;10.050;2022-11-20T10:56:25;17.30;;;10.47;;
5702;SDS011;2876;51.738;10.050;2022-11-20T11:02:54;19.13;;;10.70;;
5702;SDS011;2876;51.738;10.050;2022-11-20T11:08:59;15.47;;;10.80;;
5702;SDS011;2876;51.738;10.050;2022-11-20T11:15:13;17.80;;;9.90;;
5702;SDS011;2876;51.738;10.050;2022-11-20T11:21:34;16.70;;;10.63;;
5702;SDS011;2876;51.738;10.050;2022-11-20T11:27:45;17.57;;;11.07;;
5702;SDS011;2876;51.738;10.050;2022-11-20T11:33:50;16.33;;;10.97;;
5702;SDS011;2876;51.738;10.050;2022-11-20T11:39:52;17.50;;;11.50;;
5702;SDS011;2876;51.738;10.050;2022-11-20T11:46:24;21.10;;;11.50;;
5702;SDS011;2876;51.738;10.050;2022-11-20T11:52:27;17.27;;;11.10;;
5702;SDS011;2876;51.738;10.050;2022-11-20T11:58:39;15.30;;;9.77;;
5702;SDS011;2876;51.738;10.050;2022-11-20T12:04:48;17.53;;;10.00;;
5702;SDS011;2876;51.738;10.050;2022-11-20T12:17:18;15.47;;;10.70;;
5702;SDS011;2876;51.738;10.050;2022-11-20T12:29:58;21.63;;;9.53;;
5702;SDS011;2876;51.738;10.050;2022-11-20T12:43:04;18.20;;;9.47;;
5702;SDS011;2876;51.738;10.050;2022-11-20T12:49:32;16.00;;;10.20;;
5702;SDS011;2876;51.738;10.050;2022-11-20T13:09:00;17.70;;;10.37;;
5702;SDS011;2876;51.738;10.050;2022-11-20T13:21:49;16.20;;;9.53;;
5702;SDS011;2876;51.738;10.050;2022-11-20T13:27:56;15.73;;;9.57;;
5702;SDS011;2876;51.738;10.050;2022-11-20T13:34:10;12.43;;;8.20;;
5702;SDS011;2876;51.738;10.050;2022-11-20T13:40:35;13.20;;;8.77;;
5702;SDS011;2876;51.738;10.050;2022-11-20T13:46:56;14.70;;;8.57;;
5702;SDS011;2876;51.738;10.050;2022-11-20T14:12:35;14.87;;;9.77;;
5702;SDS011;2876;51.738;10.050;2022-11-20T14:18:40;13.43;;;8.93;;
5702;SDS011;2876;51.738;10.050;2022-11-20T14:24:42;15.07;;;9.07;;
5702;SDS011;2876;51.738;10.050;2022-11-20T14:30:45;16.00;;;9.30;;
5702;SDS011;2876;51.738;10.050;2022-11-20T14:36:50;14.23;;;8.97;;
5702;SDS011;2876;51.738;10.050;2022-11-20T14:43:17;18.77;;;10.13;;
5702;SDS011;2876;51.738;10.050;2022-11-20T14:49:30;18.23;;;9.33;;
5702;SDS011;2876;51.738;10.050;2022-11-20T14:55:34;17.13;;;9.30;;
5702;SDS011;2876;51.738;10.050;2022-11-20T15:01:42;14.53;;;9.30;;
5702;SDS011;2876;51.738;10.050;2022-11-20T15:08:12;18.57;;;10.97;;
5702;SDS011;2876;51.738;10.050;2022-11-20T15:14:15;17.47;;;9.57;;
5702;SDS011;2876;51.738;10.050;2022-11-20T15:20:17;15.77;;;8.40;;
5702;SDS011;2876;51.738;10.050;2022-11-20T15:26:23;14.57;;;9.57;;
5702;SDS011;2876;51.738;10.050;2022-11-20T15:32:27;17.27;;;10.10;;
5702;SDS011;2876;51.738;10.050;2022-11-20T15:38:29;17.70;;;10.87;;
5702;SDS011;2876;51.738;10.050;2022-11-20T15:44:31;18.60;;;10.30;;
5702;SDS011;2876;51.738;10.050;2022-11-20T15:50:35;19.87;;;10.37;;
5702;SDS011;2876;51.738;10.050;2022-11-20T15:56:42;22.00;;;10.50;;
5702;SDS011;2876;51.738;10.050;2022-11-20T16:02:44;17.97;;;9.77;;
5702;SDS011;2876;51.738;10.050;2022-11-20T16:08:46;18.33;;;10.10;;
5702;SDS011;2876;51.738;10.050;2022-11-20T16:14:51;17.93;;;9.53;;
5702;SDS011;2876;51.738;10.050;2022-11-20T16:21:14;20.20;;;9.70;;
5702;SDS011;2876;51.738;10.050;2022-11-20T16:27:16;17.63;;;9.80;;
5702;SDS011;2876;51.738;10.050;2022-11-20T16:33:17;20.03;;;12.13;;
5702;SDS011;2876;51.738;10.050;2022-11-20T16:39:19;17.30;;;10.00;;
5702;SDS011;2876;51.738;10.050;2022-11-20T16:45:30;15.17;;;9.47;;
5702;SDS011;2876;51.738;10.050;2022-11-20T16:51:34;18.37;;;11.00;;
5702;SDS011;2876;51.738;10.050;2022-11-20T16:57:36;19.80;;;9.43;;
5702;SDS011;2876;51.738;10.050;2022-11-20T17:03:41;16.70;;;10.00;;
5702;SDS011;2876;51.738;10.050;2022-11-20T17:09:53;15.67;;;9.57;;
5702;SDS011;2876;51.738;10.050;2022-11-20T17:15:59;16.60;;;9.70;;
5702;SDS011;2876;51.738;10.050;2022-11-20T17:22:16;17.83;;;10.07;;
5702;SDS011;2876;51.738;10.050;2022-11-20T17:28:18;18.40;;;10.57;;
5702;SDS011;2876;51.738;10.050;2022-11-20T17:34:32;16.83;;;9.87;;
5702;SDS011;2876;51.738;10.050;2022-11-20T17:40:34;16.40;;;10.20;;
5702;SDS011;2876;51.738;10.050;2022-11-20T17:46:36;18.57;;;10.43;;
5702;SDS011;2876;51.738;10.050;2022-11-20T17:52:38;16.57;;;9.23;;
5702;SDS011;2876;51.738;10.050;2022-11-20T17:58:54;16.53;;;8.30;;
5702;SDS011;2876;51.738;10.050;2022-11-20T18:04:57;14.40;;;8.63;;
5702;SDS011;2876;51.738;10.050;2022-11-20T18:10:59;13.70;;;8.57;;
5702;SDS011;2876;51.738;10.050;2022-11-20T18:17:12;12.00;;;8.73;;
5702;SDS011;2876;51.738;10.050;2022-11-20T18:23:16;11.93;;;8.50;;
5702;SDS011;2876;51.738;10.050;2022-11-20T18:29:18;13.60;;;8.20;;
5702;SDS011;2876;51.738;10.050;2022-11-20T18:35:20;14.53;;;8.03;;
5702;SDS011;2876;51.738;10.050;2022-11-20T18:41:24;11.37;;;7.50;;
5702;SDS011;2876;51.738;10.050;2022-11-20T18:47:53;11.57;;;7.63;;
5702;SDS011;2876;51.738;10.050;2022-11-20T18:53:58;12.43;;;7.63;;
5702;SDS011;2876;51.738;10.050;2022-11-20T19:00:02;18.63;;;10.60;;
5702;SDS011;2876;51.738;10.050;2022-11-20T19:06:12;17.10;;;9.57;;
5702;SDS011;2876;51.738;10.050;2022-11-20T19:12:21;17.90;;;8.80;;
5702;SDS011;2876;51.738;10.050;2022-11-20T19:18:27;19.43;;;10.43;;
5702;SDS011;2876;51.738;10.050;2022-11-20T19:24:29;30.53;;;13.00;;
5702;SDS011;2876;51.738;10.050;2022-11-20T19:30:31;22.07;;;11.97;;
5702;SDS011;2876;51.738;10.050;2022-11-20T19:36:43;37.37;;;15.60;;
5702;SDS011;2876;51.738;10.050;2022-11-20T19:42:45;30.43;;;12.67;;
5702;SDS011;2876;51.738;10.050;2022-11-20T19:48:47;18.27;;;11.07;;
5702;SDS011;2876;51.738;10.050;2022-11-20T19:54:50;18.23;;;11.10;;
5702;SDS011;2876;51.738;10.050;2022-11-20T20:00:52;21.67;;;11.27;;
5702;SDS011;2876;51.738;10.050;2022-11-20T20:06:55;20.67;;;11.90;;
5702;SDS011;2876;51.738;10.050;2022-11-20T20:12:57;18.13;;;11.30;;
5702;SDS011;2876;51.738;10.050;2022-11-20T20:19:02;18.30;;;11.50;;
5702;SDS011;2876;51.738;10.050;2022-11-20T20:25:05;15.50;;;10.60;;
5702;SDS011;2876;51.738;10.050;2022-11-20T20:31:12;19.30;;;9.90;;
5702;SDS011;2876;51.738;10.050;2022-11-20T20:37:22;17.47;;;10.30;;
5702;SDS011;2876;51.738;10.050;2022-11-20T20:43:28;17.03;;;9.40;;
5702;SDS011;2876;51.738;10.050;2022-11-20T20:50:03;12.70;;;8.60;;
5702;SDS011;2876;51.738;10.050;2022-11-20T20:56:09;9.83;;;6.50;;
5702;SDS011;2876;51.738;10.050;2022-11-20T21:02:11;11.07;;;7.17;;
5702;SDS011;2876;51.738;10.050;2022-11-20T21:08:16;13.97;;;8.33;;
5702;SDS011;2876;51.738;10.050;2022-11-20T21:14:26;9.07;;;7.03;;
5702;SDS011;2876;51.738;10.050;2022-11-20T21:20:28;11.57;;;7.00;;
5702;SDS011;2876;51.738;10.050;2022-11-20T21:26:49;10.73;;;6.90;;
5702;SDS011;2876;51.738;10.050;2022-11-20T21:32:52;11.83;;;7.10;;
5702;SDS011;2876;51.738;10.050;2022-11-20T21:38:57;9.23;;;6.17;;
5702;SDS011;2876;51.738;10.050;2022-11-20T21:45:02;11.53;;;6.87;;
5702;SDS011;2876;51.738;10.050;2022-11-20T21:51:05;9.20;;;6.43;;
5702;SDS011;2876;51.738;10.050;2022-11-20T21:57:13;8.63;;;5.80;;
5702;SDS011;2876;51.738;10.050;2022-11-20T22:03:25;10.43;;;6.00;;
5702;SDS011;2876;51.738;10.050;2022-11-20T22:09:40;8.03;;;4.70;;
5702;SDS011;2876;51.738;10.050;2022-11-20T22:15:42;8.20;;;4.90;;
5702;SDS011;2876;51.738;10.050;2022-11-20T22:22:00;7.17;;;5.17;;
5702;SDS011;2876;51.738;10.050;2022-11-20T22:28:20;12.53;;;7.17;;
5702;SDS011;2876;51.738;10.050;2022-11-20T22:34:22;13.33;;;7.60;;
5702;SDS011;2876;51.738;10.050;2022-11-20T22:40:25;11.80;;;6.70;;
5702;SDS011;2876;51.738;10.050;2022-11-20T22:46:35;10.60;;;6.70;;
5702;SDS011;2876;51.738;10.050;2022-11-20T22:52:43;9.40;;;6.10;;
5702;SDS011;2876;51.738;10.050;2022-11-20T22:58:46;7.80;;;5.10;;
5702;SDS011;2876;51.738;10.050;2022-11-20T23:04:51;8.17;;;5.20;;
5702;SDS011;2876;51.738;10.050;2022-11-20T23:10:57;7.57;;;5.30;;
5702;SDS011;2876;51.738;10.050;2022-11-20T23:17:14;6.63;;;5.00;;
5702;SDS011;2876;51.738;10.050;2022-11-20T23:23:38;7.27;;;5.07;;
5702;SDS011;2876;51.738;10.050;2022-11-20T23:29:41;7.90;;;5.10;;
5702;SDS011;2876;51.738;10.050;2022-11-20T23:35:45;10.30;;;5.30;;
5702;SDS011;2876;51.738;10.050;2022-11-20T23:41:47;9.63;;;6.30;;
5702;SDS011;2876;51.738;10.050;2022-11-20T23:47:49;10.73;;;6.00;;
5702;SDS011;2876;51.738;10.050;2022-11-20T23:53:51;7.63;;;4.77;;
5702;SDS011;2876;51.738;10.050;2022-11-20T23:59:54;7.03;;;5.10;;
